Time;durP1;ratioP1;P1;durP2;ratioP2;P2;SDS_P1;SDS_P2;PMS_P1;PMS_P2;Temp;Humidity;BMP_temperature;BMP_pressure;BME280_temperature;BME280_humidity;BME280_pressure;Samples;Min_cycle;Max_cycle;Signal;HPM_P1;HPM_P2
2022/09/04 05:56:19;;;;;;;;;;;22.50;73.30;;;;;;5360878;22;19921;-78
2022/09/04 05:58:53;;;;;;;;;;;22.50;73.30;;;;;;5057665;28;19975;-78
2022/09/04 06:01:26;;;;;;;;;;;22.50;73.20;;;;;;5057262;28;19929;-78
2022/09/04 06:04:10;;;;;;;;;;;22.50;73.20;;;;;;5056864;28;19925;-78
2022/09/04 06:06:43;;;;;;;;;;;22.50;73.20;;;;;;5036264;28;19928;-78
2022/09/04 06:09:19;;;;;;;;;;;22.50;73.20;;;;;;5037059;28;20360;-78
2022/09/04 06:12:00;;;;;;;;;;;22.50;73.10;;;;;;5036364;28;19920;-78
2022/09/04 06:14:42;;;;;;;;;;;22.50;73.00;;;;;;5036177;28;20283;-77
2022/09/04 06:17:17;;;;;;;;;;;22.50;72.90;;;;;;5027872;28;20292;-78
2022/09/04 06:19:52;;;;;;;;;;;22.50;72.90;;;;;;5036961;28;19932;-78
2022/09/04 06:22:32;;;;;;;;;;;22.50;72.90;;;;;;5036310;28;20403;-78
2022/09/04 06:25:13;;;;;;;;;;;22.50;72.80;;;;;;5036106;28;19921;-77
2022/09/04 06:27:48;;;;;;;;;;;22.50;72.80;;;;;;5033456;28;19924;-78
2022/09/04 06:30:16;;;;;;;;;;;22.50;72.80;;;;;;5036329;28;19928;-78
2022/09/04 06:32:48;;;;;;;;;;;22.50;72.80;;;;;;5035908;28;19927;-78
2022/09/04 06:35:18;;;;;;;;;;;22.50;72.80;;;;;;5036100;28;20283;-77
2022/09/04 06:37:49;;;;;;;;;;;22.50;72.80;;;;;;5038862;28;20361;-79
2022/09/04 06:40:24;;;;;;;;;;;22.50;72.70;;;;;;5039938;28;19924;-79
2022/09/04 06:42:58;;;;;;;;;;;22.50;72.80;;;;;;5040579;28;20015;-79
2022/09/04 06:45:29;;;;;;;;;;;22.50;72.80;;;;;;5040909;28;19927;-81
2022/09/04 06:48:03;;;;;;;;;;;22.50;72.80;;;;;;5040621;28;19927;-79
2022/09/04 06:50:34;;;;;;;;;;;22.50;72.70;;;;;;5039144;28;19928;-79
2022/09/04 06:53:05;;;;;;;;;;;22.50;72.70;;;;;;5038428;28;19921;-79
2022/09/04 06:55:33;;;;;;;;;;;22.50;72.70;;;;;;5036345;28;20024;-79
2022/09/04 06:58:12;;;;;;;;;;;22.50;72.70;;;;;;5035887;28;19921;-78
2022/09/04 07:00:42;;;;;;;;;;;22.50;72.70;;;;;;5035476;28;19921;-77
2022/09/04 07:03:18;;;;;;;;;;;22.50;72.70;;;;;;5035363;28;20372;-77
2022/09/04 07:05:51;;;;;;;;;;;22.50;72.80;;;;;;5035507;28;19958;-78
2022/09/04 07:08:25;;;;;;;;;;;22.50;72.80;;;;;;5035242;28;19921;-78
2022/09/04 07:10:59;;;;;;;;;;;22.50;72.80;;;;;;5035235;28;19927;-77
2022/09/04 07:13:39;;;;;;;;;;;22.60;73.00;;;;;;5035538;28;19929;-78
2022/09/04 07:16:25;;;;;;;;;;;22.60;73.00;;;;;;5035920;28;20120;-79
2022/09/04 07:19:06;;;;;;;;;;;22.60;73.10;;;;;;5036616;28;19920;-80
2022/09/04 07:21:40;;;;;;;;;;;22.60;73.10;;;;;;5035972;28;19921;-79
2022/09/04 07:24:12;;;;;;;;;;;22.60;73.20;;;;;;5039027;28;19943;-80
2022/09/04 07:26:44;;;;;;;;;;;22.60;73.30;;;;;;5037665;28;19928;-80
2022/09/04 07:29:29;;;;;;;;;;;22.60;73.40;;;;;;5039152;28;20292;-80
2022/09/04 07:32:00;;;;;;;;;;;22.60;73.40;;;;;;5039110;28;19925;-82
2022/09/04 07:34:31;;;;;;;;;;;22.60;73.40;;;;;;5040013;28;19975;-81
2022/09/04 07:37:00;;;;;;;;;;;22.60;73.50;;;;;;5040139;28;20364;-82
2022/09/04 07:39:30;;;;;;;;;;;22.60;73.50;;;;;;5039115;28;19921;-81
2022/09/04 07:42:00;;;;;;;;;;;22.60;73.50;;;;;;5040293;28;19924;-83
2022/09/04 07:44:33;;;;;;;;;;;22.60;73.50;;;;;;5039605;28;19986;-82
2022/09/04 07:47:11;;;;;;;;;;;22.60;73.50;;;;;;5039684;28;19921;-82
2022/09/04 07:49:42;;;;;;;;;;;22.60;73.50;;;;;;5040634;28;20090;-82
2022/09/04 07:52:15;;;;;;;;;;;22.60;73.60;;;;;;5040075;28;19985;-82
2022/09/04 07:55:01;;;;;;;;;;;22.60;73.70;;;;;;5040181;28;19920;-81
2022/09/04 07:57:55;;;;;;;;;;;22.60;73.70;;;;;;5038969;28;20332;-81
2022/09/04 08:00:24;;;;;;;;;;;22.60;73.80;;;;;;5014977;28;20366;-81
2022/09/04 08:03:10;;;;;;;;;;;22.60;73.80;;;;;;5038912;28;19921;-80
2022/09/04 08:05:39;;;;;;;;;;;22.60;73.90;;;;;;5038763;28;19921;-80
2022/09/04 08:08:16;;;;;;;;;;;22.60;73.90;;;;;;5039468;28;19921;-80
2022/09/04 08:10:58;;;;;;;;;;;22.60;74.00;;;;;;5039721;28;20339;-79
2022/09/04 08:13:37;;;;;;;;;;;22.70;74.10;;;;;;5038968;28;20058;-80
2022/09/04 08:16:07;;;;;;;;;;;22.60;74.10;;;;;;5038745;28;20380;-79
2022/09/04 08:19:00;;;;;;;;;;;22.60;74.10;;;;;;5039596;28;19927;-80
2022/09/04 08:21:29;;;;;;;;;;;22.60;74.30;;;;;;5035773;28;20019;-79
2022/09/04 08:24:03;;;;;;;;;;;22.70;74.50;;;;;;5033817;28;19925;-78
2022/09/04 08:26:34;;;;;;;;;;;22.70;74.60;;;;;;5033638;28;19967;-78
2022/09/04 08:29:07;;;;;;;;;;;22.70;74.70;;;;;;5033858;28;19921;-78
2022/09/04 08:31:41;;;;;;;;;;;22.70;74.80;;;;;;5033684;28;20368;-78
2022/09/04 08:34:26;;;;;;;;;;;22.70;74.90;;;;;;5033170;28;20359;-78
2022/09/04 08:36:57;;;;;;;;;;;22.70;75.00;;;;;;5033197;28;19937;-78
2022/09/04 08:39:31;;;;;;;;;;;22.70;75.20;;;;;;5033120;28;19921;-78
2022/09/04 08:42:14;;;;;;;;;;;22.70;75.40;;;;;;5033246;28;19921;-79
2022/09/04 08:45:06;;;;;;;;;;;22.70;75.50;;;;;;5033116;28;20300;-78
2022/09/04 08:47:54;;;;;;;;;;;22.70;75.70;;;;;;5033674;28;20007;-78
2022/09/04 08:50:35;;;;;;;;;;;22.70;75.90;;;;;;5035140;28;19921;-78
2022/09/04 08:53:19;;;;;;;;;;;22.80;76.20;;;;;;5035745;28;19921;-78
2022/09/04 08:55:49;;;;;;;;;;;22.80;76.50;;;;;;5037480;28;19928;-78
2022/09/04 08:58:24;;;;;;;;;;;22.80;76.70;;;;;;5038110;28;19924;-78
2022/09/04 09:01:06;;;;;;;;;;;22.80;76.70;;;;;;5037169;28;20419;-78
2022/09/04 09:03:50;;;;;;;;;;;22.80;76.70;;;;;;5035133;28;19983;-78
2022/09/04 09:06:41;;;;;;;;;;;22.80;77.00;;;;;;5036669;28;19921;-77
2022/09/04 09:09:20;;;;;;;;;;;22.80;77.30;;;;;;5036956;28;20296;-78
2022/09/04 09:11:59;;;;;;;;;;;22.80;77.60;;;;;;5036938;28;19929;-78
2022/09/04 09:14:42;;;;;;;;;;;22.90;78.00;;;;;;5037053;28;19920;-78
2022/09/04 09:17:15;;;;;;;;;;;22.90;78.20;;;;;;5036989;28;19965;-78
2022/09/04 09:19:44;;;;;;;;;;;22.90;78.40;;;;;;5036905;28;19971;-78
2022/09/04 09:22:21;;;;;;;;;;;22.90;78.60;;;;;;5036924;28;19967;-78
2022/09/04 09:25:15;;;;;;;;;;;22.90;78.80;;;;;;5036705;28;19921;-77
2022/09/04 09:28:00;;;;;;;;;;;22.90;79.10;;;;;;5036784;28;19921;-77
2022/09/04 09:30:33;;;;;;;;;;;22.90;79.30;;;;;;5036419;28;19939;-77
2022/09/04 09:33:19;;;;;;;;;;;22.90;79.70;;;;;;5036561;28;19927;-79
2022/09/04 09:36:05;;;;;;;;;;;22.90;80.80;;;;;;5036739;28;20348;-75
2022/09/04 09:38:47;;;;;;;;;;;22.90;80.40;;;;;;5036266;28;20402;-75
2022/09/04 09:41:28;;;;;;;;;;;22.90;80.70;;;;;;5034737;28;19969;-75
2022/09/04 09:44:25;;;;;;;;;;;22.90;81.10;;;;;;5036121;28;19921;-75
2022/09/04 09:47:11;;;;;;;;;;;22.90;81.40;;;;;;5036054;28;20295;-75
2022/09/04 09:49:56;;;;;;;;;;;22.90;81.80;;;;;;5036412;28;19941;-76
2022/09/04 09:52:43;;;;;;;;;;;22.90;82.20;;;;;;5036593;28;19927;-77
2022/09/04 09:55:24;;;;;;;;;;;23.00;82.70;;;;;;5036601;28;20003;-76
2022/09/04 09:58:02;;;;;;;;;;;22.90;82.60;;;;;;5036961;28;20383;-78
2022/09/04 10:00:35;;;;;;;;;;;22.90;82.60;;;;;;5038733;28;19927;-82
2022/09/04 10:03:23;;;;;;;;;;;22.90;83.00;;;;;;5044747;28;19921;-79
2022/09/04 15:30:02;;;;;;;;;;;23.30;80.30;;;;;;5200865;22;19921;-77
2022/09/04 15:32:31;;;;;;;;;;;23.40;80.40;;;;;;5063901;28;20406;-79
2022/09/04 15:35:11;;;;;;;;;;;23.40;80.40;;;;;;5066835;28;19988;-81
2022/09/04 15:37:38;;;;;;;;;;;23.40;80.50;;;;;;5069374;28;19927;-80
2022/09/04 15:40:10;;;;;;;;;;;23.40;80.50;;;;;;5070323;28;19989;-80
2022/09/04 15:42:44;;;;;;;;;;;23.40;80.60;;;;;;5074067;28;19909;-80
2022/09/04 15:45:16;;;;;;;;;;;23.40;80.60;;;;;;5068846;28;20363;-80
2022/09/04 15:47:46;;;;;;;;;;;23.40;80.70;;;;;;5057824;28;19943;-81
2022/09/04 15:50:19;;;;;;;;;;;23.40;80.80;;;;;;5058120;28;19920;-80
2022/09/04 15:52:50;;;;;;;;;;;23.40;80.90;;;;;;5060597;28;19963;-80
2022/09/04 15:55:21;;;;;;;;;;;23.50;81.30;;;;;;5058601;28;19978;-79
2022/09/04 15:57:50;;;;;;;;;;;23.50;81.40;;;;;;5060585;28;19920;-80
2022/09/04 16:00:22;;;;;;;;;;;23.50;81.60;;;;;;5059983;28;19920;-80
2022/09/04 16:02:53;;;;;;;;;;;23.50;81.80;;;;;;5060102;28;20020;-79
2022/09/04 16:05:23;;;;;;;;;;;23.50;82.10;;;;;;5060879;28;19927;-79
2022/09/04 16:08:01;;;;;;;;;;;23.50;82.40;;;;;;5060229;28;19972;-80
2022/09/04 16:10:39;;;;;;;;;;;23.50;82.80;;;;;;5059329;28;19924;-81
2022/09/04 16:13:26;;;;;;;;;;;23.50;83.20;;;;;;5057790;28;19988;-79
2022/09/04 16:15:58;;;;;;;;;;;23.50;83.20;;;;;;5059395;28;19969;-78
2022/09/04 16:18:33;;;;;;;;;;;23.50;83.20;;;;;;5060670;28;19970;-79
2022/09/04 16:21:02;;;;;;;;;;;23.50;83.60;;;;;;5059942;28;19927;-79
2022/09/04 16:23:30;;;;;;;;;;;23.60;83.90;;;;;;5059982;28;20335;-80
2022/09/04 16:25:58;;;;;;;;;;;23.50;84.00;;;;;;5059178;28;19921;-80
2022/09/04 16:28:30;;;;;;;;;;;23.50;84.20;;;;;;5059964;28;19948;-80
2022/09/04 16:31:00;;;;;;;;;;;23.50;84.50;;;;;;5062086;28;19928;-79
2022/09/04 16:33:30;;;;;;;;;;;23.50;84.80;;;;;;5063332;28;19921;-79
2022/09/04 16:35:59;;;;;;;;;;;23.50;85.00;;;;;;5062355;28;20012;-79
2022/09/04 16:38:28;;;;;;;;;;;23.50;85.30;;;;;;5062695;28;19964;-80
2022/09/04 16:41:00;;;;;;;;;;;23.50;85.60;;;;;;5061392;28;19924;-79
2022/09/04 16:43:30;;;;;;;;;;;23.50;85.90;;;;;;5060930;28;19921;-79
2022/09/04 16:46:12;;;;;;;;;;;23.50;86.30;;;;;;5060384;28;19920;-79
2022/09/04 16:48:48;;;;;;;;;;;23.50;86.60;;;;;;5057715;28;20007;-78
2022/09/04 16:51:21;;;;;;;;;;;23.60;87.20;;;;;;5056639;28;19921;-79
2022/09/04 16:53:50;;;;;;;;;;;23.60;87.70;;;;;;5056161;28;19920;-78
2022/09/04 16:56:19;;;;;;;;;;;23.60;88.20;;;;;;5056230;28;19980;-78
2022/09/04 16:58:53;;;;;;;;;;;23.60;88.40;;;;;;5056180;28;19924;-78
2022/09/04 17:01:26;;;;;;;;;;;23.60;88.70;;;;;;5059372;28;20019;-80
2022/09/04 17:04:18;;;;;;;;;;;23.60;89.10;;;;;;5060708;28;19920;-81
2022/09/04 17:06:58;;;;;;;;;;;23.60;89.50;;;;;;5049795;28;19920;-81
2022/09/04 17:09:28;;;;;;;;;;;23.60;90.10;;;;;;5060344;28;19921;-80
2022/09/04 17:11:57;;;;;;;;;;;23.60;90.40;;;;;;5062787;28;19975;-81
2022/09/04 17:14:28;;;;;;;;;;;23.70;90.70;;;;;;5063192;28;20015;-82
2022/09/04 17:17:02;;;;;;;;;;;23.70;90.90;;;;;;5063244;28;19921;-82
2022/09/04 17:19:29;;;;;;;;;;;23.70;91.20;;;;;;5063709;28;20015;-82
2022/09/04 17:24:50;;;;;;;;;;;23.70;91.50;;;;;;5061617;28;19923;-83
2022/09/04 17:27:21;;;;;;;;;;;23.70;91.80;;;;;;5061970;28;19921;-79
2022/09/04 17:29:49;;;;;;;;;;;23.60;92.00;;;;;;5066089;28;19984;-80
2022/09/04 17:32:20;;;;;;;;;;;23.60;92.10;;;;;;5060150;28;19992;-82
2022/09/04 17:34:54;;;;;;;;;;;23.60;92.10;;;;;;5061328;28;19921;-82
2022/09/04 17:37:25;;;;;;;;;;;23.60;92.40;;;;;;5070001;28;19943;-84
2022/09/04 17:39:56;;;;;;;;;;;23.60;92.60;;;;;;5071662;28;19980;-82
2022/09/04 17:42:24;;;;;;;;;;;23.60;92.80;;;;;;5072974;28;19979;-83
2022/09/04 17:44:56;;;;;;;;;;;23.60;92.90;;;;;;5069753;28;19988;-83
2022/09/04 17:47:31;;;;;;;;;;;23.70;93.20;;;;;;5065590;28;19921;-84
2022/09/04 17:49:58;;;;;;;;;;;23.60;93.30;;;;;;5066385;28;19952;-81
2022/09/04 17:52:27;;;;;;;;;;;23.60;93.40;;;;;;5065961;28;20316;-82
2022/09/04 17:54:56;;;;;;;;;;;23.60;93.60;;;;;;5067112;28;19921;-81
2022/09/04 17:57:27;;;;;;;;;;;23.70;93.80;;;;;;5066005;28;19921;-82
2022/09/04 17:59:57;;;;;;;;;;;23.70;93.90;;;;;;5064866;28;19921;-80
2022/09/04 18:02:27;;;;;;;;;;;23.70;94.10;;;;;;5064957;28;20019;-82
2022/09/04 18:04:59;;;;;;;;;;;23.70;94.30;;;;;;5065395;28;20456;-81
2022/09/04 18:07:29;;;;;;;;;;;23.70;94.50;;;;;;5064902;28;19920;-82
2022/09/04 18:10:00;;;;;;;;;;;23.70;94.60;;;;;;5064074;28;19925;-82
2022/09/04 18:12:33;;;;;;;;;;;23.70;94.60;;;;;;5063518;28;19921;-85
2022/09/04 18:15:04;;;;;;;;;;;23.70;94.80;;;;;;5062146;28;19920;-84
2022/09/04 18:17:35;;;;;;;;;;;23.70;95.00;;;;;;5062256;28;20360;-85
2022/09/04 18:20:16;;;;;;;;;;;23.70;95.10;;;;;;5063918;28;19988;-83
2022/09/04 18:22:57;;;;;;;;;;;23.70;95.30;;;;;;5062878;28;19952;-83
2022/09/04 18:25:25;;;;;;;;;;;23.70;95.40;;;;;;5061472;28;19920;-84
2022/09/04 18:27:53;;;;;;;;;;;23.70;95.50;;;;;;5061847;28;20003;-84
2022/09/04 18:30:22;;;;;;;;;;;23.70;95.50;;;;;;5062638;28;19921;-84
2022/09/04 18:32:51;;;;;;;;;;;23.70;95.60;;;;;;5063136;28;19974;-83
2022/09/04 18:35:21;;;;;;;;;;;23.70;95.70;;;;;;5061545;28;20007;-86
2022/09/04 18:37:51;;;;;;;;;;;23.70;95.80;;;;;;5059294;28;20351;-87
2022/09/04 18:40:21;;;;;;;;;;;23.70;95.90;;;;;;5063399;28;20337;-83
2022/09/04 18:42:59;;;;;;;;;;;23.70;95.90;;;;;;5061528;28;19921;-84
2022/09/04 18:45:29;;;;;;;;;;;23.70;96.00;;;;;;5063222;28;19920;-84
2022/09/04 18:47:56;;;;;;;;;;;23.70;96.00;;;;;;5059740;28;19920;-82
2022/09/04 18:50:28;;;;;;;;;;;23.70;96.10;;;;;;5058889;28;20020;-81
2022/09/04 18:52:58;;;;;;;;;;;23.70;96.20;;;;;;5061474;28;20020;-80
2022/09/04 18:55:27;;;;;;;;;;;23.70;96.20;;;;;;5062972;28;19999;-80
2022/09/04 18:57:56;;;;;;;;;;;23.70;96.40;;;;;;5062098;28;20446;-79
2022/09/04 19:00:24;;;;;;;;;;;23.70;96.50;;;;;;5059402;28;19927;-78
2022/09/04 19:02:53;;;;;;;;;;;23.70;96.50;;;;;;5060592;28;20007;-78
2022/09/04 19:05:20;;;;;;;;;;;23.70;96.60;;;;;;5062169;28;20016;-79
2022/09/04 19:07:50;;;;;;;;;;;23.70;96.70;;;;;;5058717;28;19924;-79
2022/09/04 19:10:19;;;;;;;;;;;23.70;96.70;;;;;;5058661;28;19924;-78
2022/09/04 19:12:54;;;;;;;;;;;23.70;96.80;;;;;;5061372;28;19920;-78
2022/09/04 19:15:23;;;;;;;;;;;23.70;96.90;;;;;;5061144;28;19974;-79
2022/09/04 19:17:54;;;;;;;;;;;23.70;97.00;;;;;;5062571;28;20355;-79
2022/09/04 19:20:23;;;;;;;;;;;23.70;97.10;;;;;;5063216;28;19921;-79
2022/09/04 19:22:53;;;;;;;;;;;23.70;97.10;;;;;;5063592;28;20275;-79
2022/09/04 19:25:22;;;;;;;;;;;23.70;97.10;;;;;;5062516;28;19963;-79
2022/09/04 19:27:50;;;;;;;;;;;23.70;97.10;;;;;;5063085;28;19968;-79
2022/09/04 19:30:17;;;;;;;;;;;23.70;97.10;;;;;;5061989;28;19976;-79
2022/09/04 19:32:51;;;;;;;;;;;23.70;97.10;;;;;;5062533;28;20118;-79
2022/09/04 19:35:21;;;;;;;;;;;23.60;97.00;;;;;;5062173;28;19921;-79
2022/09/04 19:37:53;;;;;;;;;;;23.60;97.10;;;;;;5062404;28;20010;-79
2022/09/04 19:40:22;;;;;;;;;;;23.60;97.10;;;;;;5061858;28;20019;-79
2022/09/04 19:42:51;;;;;;;;;;;23.60;97.00;;;;;;5061970;28;20398;-79
2022/09/04 19:45:23;;;;;;;;;;;23.60;97.00;;;;;;5062335;28;19984;-79
2022/09/04 19:47:56;;;;;;;;;;;23.60;97.00;;;;;;5062338;28;19959;-79
2022/09/04 19:50:29;;;;;;;;;;;23.60;97.00;;;;;;5062075;28;19927;-79
2022/09/04 19:52:56;;;;;;;;;;;23.60;97.00;;;;;;5062166;28;20344;-79
2022/09/04 19:55:35;;;;;;;;;;;23.60;97.00;;;;;;5063023;28;20345;-79
2022/09/04 19:58:05;;;;;;;;;;;23.60;97.00;;;;;;5062788;28;19920;-79
2022/09/04 20:00:36;;;;;;;;;;;23.60;97.00;;;;;;5062058;28;19983;-79
2022/09/04 20:03:05;;;;;;;;;;;23.50;97.00;;;;;;5062185;28;19963;-79
2022/09/04 20:05:32;;;;;;;;;;;23.50;97.00;;;;;;5061489;28;19921;-79
2022/09/04 20:08:03;;;;;;;;;;;23.60;97.00;;;;;;5060887;28;20003;-79
2022/09/04 20:10:36;;;;;;;;;;;23.50;97.00;;;;;;5058963;28;19957;-79
2022/09/04 20:13:07;;;;;;;;;;;23.50;97.00;;;;;;5063349;28;19921;-79
2022/09/04 20:15:34;;;;;;;;;;;23.50;97.00;;;;;;5063953;28;19960;-79
2022/09/04 20:18:10;;;;;;;;;;;23.50;97.00;;;;;;5062814;28;19967;-79
2022/09/04 20:20:43;;;;;;;;;;;23.50;97.00;;;;;;5061601;28;19924;-79
2022/09/04 20:23:12;;;;;;;;;;;23.50;97.00;;;;;;5064430;28;19927;-79
2022/09/04 20:25:45;;;;;;;;;;;23.50;97.00;;;;;;5063216;28;20360;-79
2022/09/04 20:28:21;;;;;;;;;;;23.50;97.00;;;;;;5063356;28;19927;-79
2022/09/04 20:31:02;;;;;;;;;;;23.50;97.00;;;;;;5063100;28;19956;-79
2022/09/04 20:33:33;;;;;;;;;;;23.50;97.00;;;;;;5060547;28;20372;-79
2022/09/04 20:36:03;;;;;;;;;;;23.50;97.00;;;;;;5063205;28;19921;-79
2022/09/04 20:38:34;;;;;;;;;;;23.50;97.00;;;;;;5064350;28;19921;-79
2022/09/04 20:41:08;;;;;;;;;;;23.50;97.00;;;;;;5063418;28;19920;-78
2022/09/04 20:43:39;;;;;;;;;;;23.50;96.90;;;;;;5064872;28;20011;-78
2022/09/04 20:46:12;;;;;;;;;;;23.50;96.90;;;;;;5062733;28;19976;-78
2022/09/04 20:48:42;;;;;;;;;;;23.50;96.80;;;;;;5064792;28;19924;-78
2022/09/04 20:51:11;;;;;;;;;;;23.50;96.80;;;;;;5062369;28;20372;-78
2022/09/04 20:53:45;;;;;;;;;;;23.50;96.80;;;;;;5063199;28;19997;-78
2022/09/04 20:56:17;;;;;;;;;;;23.50;96.70;;;;;;5062447;28;19943;-79
2022/09/04 20:58:52;;;;;;;;;;;23.50;96.70;;;;;;5064246;28;19943;-79
2022/09/04 21:01:22;;;;;;;;;;;23.50;96.70;;;;;;5062939;28;19927;-78
2022/09/04 21:03:52;;;;;;;;;;;23.50;96.60;;;;;;5063565;28;19999;-78
2022/09/04 21:06:25;;;;;;;;;;;23.50;96.60;;;;;;5062920;28;19980;-78
2022/09/04 21:08:56;;;;;;;;;;;23.50;96.60;;;;;;5064959;28;20012;-78
2022/09/04 21:11:27;;;;;;;;;;;23.50;96.60;;;;;;5066335;28;19999;-79
2022/09/04 21:13:56;;;;;;;;;;;23.50;96.70;;;;;;5067009;28;19927;-79
2022/09/04 21:16:29;;;;;;;;;;;23.50;96.70;;;;;;5065728;28;19920;-79
2022/09/04 21:19:11;;;;;;;;;;;23.50;96.70;;;;;;5065685;28;19967;-79
2022/09/04 21:21:45;;;;;;;;;;;23.50;96.70;;;;;;5065220;28;19922;-79
2022/09/04 21:24:30;;;;;;;;;;;23.50;96.80;;;;;;5065716;28;19921;-79
2022/09/04 21:27:08;;;;;;;;;;;23.50;96.80;;;;;;5066001;28;19970;-79
2022/09/04 21:29:44;;;;;;;;;;;23.50;96.90;;;;;;5064904;28;19960;-79
2022/09/04 21:32:28;;;;;;;;;;;23.50;96.90;;;;;;5064011;28;20435;-79
2022/09/04 21:34:59;;;;;;;;;;;23.50;96.90;;;;;;5065038;28;19993;-79
2022/09/04 21:37:28;;;;;;;;;;;23.50;96.90;;;;;;5065239;28;19951;-79
2022/09/04 21:40:01;;;;;;;;;;;23.50;97.30;;;;;;5065299;28;20007;-79
2022/09/04 21:42:52;;;;;;;;;;;23.50;97.00;;;;;;5065969;28;19947;-79
2022/09/04 21:45:36;;;;;;;;;;;23.50;97.00;;;;;;5054349;28;20019;-79
2022/09/04 21:48:17;;;;;;;;;;;23.50;97.00;;;;;;5064363;28;19983;-79
